ITY80 LICG-DTTA
Flight info
| Callsign | ITY80 |
|---|---|
| Flight time | 0h 29m |
| Altitude | 13000 |
| Route | RUBRI DCT SONAK DCT DIDON DCT NIREM |
| Aircraft | A21N/M-SDE2E3FGHIRWXY/LB1 |
Departure
| Time | 2026-04-26 17:27 |
|---|---|
| Airport | Pantelleria Airport (LICG) |
Arrival
| Time | 2026-04-26 17:56 |
|---|---|
| Airport | Tunis Carthage International Airport (DTTA) |
| Time | Latitude | Longitude | Altitude | Speed | Heading |
|---|---|---|---|---|---|
| 2026-04-26 17:13 | 36.81828 | 11.96818 | 643 ft | 0 kts | 79° |
| 2026-04-26 17:23 | 36.81825 | 11.96834 | 638 ft | 9 kts | 120° |
| 2026-04-26 17:23 | 36.81774 | 11.96900 | 639 ft | 11 kts | 134° |
| 2026-04-26 17:23 | 36.81700 | 11.96926 | 646 ft | 14 kts | 205° |
| 2026-04-26 17:24 | 36.81634 | 11.96823 | 649 ft | 17 kts | 252° |
| 2026-04-26 17:24 | 36.81606 | 11.96670 | 650 ft | 19 kts | 259° |
| 2026-04-26 17:24 | 36.81579 | 11.96504 | 648 ft | 20 kts | 258° |
| 2026-04-26 17:24 | 36.81547 | 11.96330 | 651 ft | 22 kts | 257° |
| 2026-04-26 17:25 | 36.81511 | 11.96140 | 657 ft | 23 kts | 255° |
| 2026-04-26 17:25 | 36.81468 | 11.95935 | 665 ft | 25 kts | 256° |
| 2026-04-26 17:25 | 36.81438 | 11.95745 | 670 ft | 14 kts | 275° |
| 2026-04-26 17:25 | 36.81416 | 11.95739 | 667 ft | 5 kts | 55° |
| 2026-04-26 17:26 | 36.81427 | 11.95774 | 667 ft | 0 kts | 72° |
| 2026-04-26 17:26 | 36.81443 | 11.95835 | 666 ft | 37 kts | 72° |
| 2026-04-26 17:26 | 36.81591 | 11.96560 | 649 ft | 132 kts | 76° |
| 2026-04-26 17:26 | 36.81823 | 11.97875 | 1047 ft | 162 kts | 77° |
| 2026-04-26 17:27 | 36.82074 | 11.99266 | 1970 ft | 165 kts | 77° |
| 2026-04-26 17:27 | 36.82337 | 12.00647 | 2764 ft | 163 kts | 76° |
| 2026-04-26 17:27 | 36.82611 | 12.02028 | 3425 ft | 165 kts | 75° |
| 2026-04-26 17:27 | 36.82886 | 12.03432 | 4047 ft | 168 kts | 75° |
| 2026-04-26 17:28 | 36.83171 | 12.04860 | 4700 ft | 172 kts | 75° |
| 2026-04-26 17:28 | 36.83469 | 12.06399 | 5191 ft | 192 kts | 75° |
| 2026-04-26 17:28 | 36.83697 | 12.08115 | 5696 ft | 211 kts | 90° |
| 2026-04-26 17:28 | 36.83266 | 12.09922 | 6190 ft | 229 kts | 122° |
| 2026-04-26 17:29 | 36.82073 | 12.11354 | 6595 ft | 252 kts | 154° |
| 2026-04-26 17:29 | 36.80956 | 12.11877 | 6838 ft | 267 kts | 165° |
| 2026-04-26 17:29 | 36.78452 | 12.12671 | 7587 ft | 284 kts | 167° |
| 2026-04-26 17:29 | 36.76520 | 12.13291 | 8381 ft | 289 kts | 166° |
| 2026-04-26 17:30 | 36.74546 | 12.13829 | 9219 ft | 292 kts | 174° |
| 2026-04-26 17:30 | 36.72565 | 12.13643 | 10033 ft | 291 kts | 200° |
| 2026-04-26 17:30 | 36.70648 | 12.12737 | 10590 ft | 303 kts | 205° |
| 2026-04-26 17:30 | 36.68634 | 12.11699 | 10978 ft | 323 kts | 205° |
| 2026-04-26 17:31 | 36.66512 | 12.10657 | 11606 ft | 332 kts | 204° |
| 2026-04-26 17:31 | 36.64338 | 12.09632 | 12358 ft | 336 kts | 205° |
| 2026-04-26 17:31 | 36.62277 | 12.08303 | 12875 ft | 333 kts | 221° |
| 2026-04-26 17:31 | 36.60746 | 12.06212 | 13074 ft | 324 kts | 243° |
| 2026-04-26 17:32 | 36.59991 | 12.03645 | 13138 ft | 310 kts | 264° |
| 2026-04-26 17:32 | 36.59942 | 12.00990 | 13155 ft | 306 kts | 275° |
| 2026-04-26 17:32 | 36.60091 | 11.98348 | 13155 ft | 306 kts | 276° |
| 2026-04-26 17:32 | 36.60237 | 11.95703 | 13150 ft | 306 kts | 275° |
| 2026-04-26 17:33 | 36.60364 | 11.93060 | 13149 ft | 306 kts | 275° |
| 2026-04-26 17:33 | 36.60480 | 11.90408 | 13148 ft | 306 kts | 275° |
| 2026-04-26 17:33 | 36.60587 | 11.87765 | 13149 ft | 306 kts | 275° |
| 2026-04-26 17:34 | 36.60795 | 11.82483 | 13150 ft | 306 kts | 274° |
| 2026-04-26 17:34 | 36.60896 | 11.79835 | 13151 ft | 306 kts | 274° |
| 2026-04-26 17:34 | 36.60996 | 11.77187 | 13151 ft | 307 kts | 274° |
| 2026-04-26 17:34 | 36.61094 | 11.74534 | 13151 ft | 306 kts | 274° |
| 2026-04-26 17:35 | 36.61193 | 11.71887 | 13151 ft | 307 kts | 274° |
| 2026-04-26 17:35 | 36.61291 | 11.69235 | 13151 ft | 307 kts | 274° |
| 2026-04-26 17:35 | 36.61390 | 11.66589 | 13145 ft | 305 kts | 274° |
| 2026-04-26 17:35 | 36.61486 | 11.63949 | 13149 ft | 305 kts | 274° |
| 2026-04-26 17:36 | 36.61582 | 11.61316 | 13152 ft | 305 kts | 274° |
| 2026-04-26 17:36 | 36.61679 | 11.58674 | 13153 ft | 305 kts | 274° |
| 2026-04-26 17:36 | 36.61773 | 11.56045 | 13154 ft | 305 kts | 274° |
| 2026-04-26 17:36 | 36.61866 | 11.53401 | 13153 ft | 305 kts | 274° |
| 2026-04-26 17:37 | 36.61968 | 11.50768 | 13154 ft | 304 kts | 277° |
| 2026-04-26 17:37 | 36.62443 | 11.48214 | 13154 ft | 304 kts | 292° |
| 2026-04-26 17:37 | 36.63368 | 11.45851 | 13161 ft | 304 kts | 297° |
| 2026-04-26 17:38 | 36.65358 | 11.41207 | 13157 ft | 304 kts | 297° |
| 2026-04-26 17:38 | 36.66347 | 11.38879 | 13155 ft | 304 kts | 297° |
| 2026-04-26 17:38 | 36.67327 | 11.36543 | 13154 ft | 304 kts | 297° |
| 2026-04-26 17:38 | 36.68302 | 11.34213 | 13154 ft | 304 kts | 297° |
| 2026-04-26 17:39 | 36.69279 | 11.31873 | 13151 ft | 304 kts | 297° |
| 2026-04-26 17:39 | 36.70255 | 11.29528 | 13156 ft | 306 kts | 297° |
| 2026-04-26 17:39 | 36.70903 | 11.27970 | 13154 ft | 304 kts | 297° |
| 2026-04-26 17:39 | 36.72203 | 11.24839 | 13152 ft | 303 kts | 297° |
| 2026-04-26 17:40 | 36.73151 | 11.22557 | 12996 ft | 291 kts | 297° |
| 2026-04-26 17:40 | 36.73463 | 11.21807 | 12922 ft | 288 kts | 297° |
| 2026-04-26 17:40 | 36.74955 | 11.18211 | 12523 ft | 276 kts | 297° |
| 2026-04-26 17:40 | 36.75539 | 11.16803 | 12355 ft | 276 kts | 297° |
| 2026-04-26 17:41 | 36.76418 | 11.14680 | 12109 ft | 275 kts | 297° |
| 2026-04-26 17:41 | 36.77296 | 11.12560 | 11859 ft | 274 kts | 297° |
| 2026-04-26 17:41 | 36.78170 | 11.10449 | 11607 ft | 274 kts | 297° |
| 2026-04-26 17:41 | 36.79040 | 11.08340 | 11366 ft | 273 kts | 297° |
| 2026-04-26 17:42 | 36.79907 | 11.06237 | 11127 ft | 272 kts | 297° |
| 2026-04-26 17:42 | 36.80774 | 11.04139 | 10883 ft | 272 kts | 297° |
| 2026-04-26 17:42 | 36.81638 | 11.02044 | 10643 ft | 271 kts | 297° |
| 2026-04-26 17:42 | 36.82500 | 10.99952 | 10403 ft | 271 kts | 297° |
| 2026-04-26 17:43 | 36.83358 | 10.97871 | 10202 ft | 268 kts | 297° |
| 2026-04-26 17:43 | 36.84210 | 10.95807 | 10058 ft | 267 kts | 297° |
| 2026-04-26 17:43 | 36.85058 | 10.93746 | 9925 ft | 267 kts | 297° |
| 2026-04-26 17:43 | 36.85906 | 10.91687 | 9791 ft | 267 kts | 297° |
| 2026-04-26 17:44 | 36.86740 | 10.89649 | 9662 ft | 267 kts | 297° |
| 2026-04-26 17:44 | 36.87588 | 10.87585 | 9532 ft | 267 kts | 297° |
| 2026-04-26 17:44 | 36.88443 | 10.85498 | 9341 ft | 266 kts | 297° |
| 2026-04-26 17:44 | 36.89268 | 10.83478 | 9087 ft | 263 kts | 297° |
| 2026-04-26 17:45 | 36.90097 | 10.81449 | 8812 ft | 261 kts | 297° |
| 2026-04-26 17:45 | 36.90922 | 10.79428 | 8532 ft | 260 kts | 297° |
| 2026-04-26 17:45 | 36.91743 | 10.77420 | 8255 ft | 259 kts | 297° |
| 2026-04-26 17:45 | 36.92563 | 10.75416 | 7971 ft | 258 kts | 297° |
| 2026-04-26 17:46 | 36.93378 | 10.73422 | 7707 ft | 256 kts | 297° |
| 2026-04-26 17:46 | 36.94187 | 10.71448 | 7434 ft | 255 kts | 297° |
| 2026-04-26 17:46 | 36.94993 | 10.69476 | 7161 ft | 254 kts | 297° |
| 2026-04-26 17:46 | 36.95794 | 10.67510 | 6883 ft | 253 kts | 297° |
| 2026-04-26 17:47 | 36.96595 | 10.65549 | 6598 ft | 253 kts | 297° |
| 2026-04-26 17:47 | 36.97125 | 10.64252 | 6400 ft | 253 kts | 297° |
| 2026-04-26 17:47 | 36.98191 | 10.61636 | 6014 ft | 252 kts | 297° |
| 2026-04-26 17:47 | 36.98985 | 10.59688 | 5732 ft | 251 kts | 298° |
| 2026-04-26 17:48 | 36.99776 | 10.57747 | 5459 ft | 250 kts | 297° |
| 2026-04-26 17:48 | 37.00564 | 10.55812 | 5185 ft | 249 kts | 297° |
| 2026-04-26 17:48 | 37.01346 | 10.53882 | 4923 ft | 248 kts | 297° |
| 2026-04-26 17:48 | 37.02129 | 10.51956 | 4626 ft | 248 kts | 297° |
| 2026-04-26 17:49 | 37.02907 | 10.50038 | 4330 ft | 247 kts | 297° |
| 2026-04-26 17:49 | 37.03687 | 10.48118 | 4062 ft | 247 kts | 297° |
| 2026-04-26 17:49 | 37.04465 | 10.46199 | 3773 ft | 247 kts | 297° |
| 2026-04-26 17:49 | 37.05175 | 10.44241 | 3477 ft | 248 kts | 286° |
| 2026-04-26 17:50 | 37.05256 | 10.42099 | 3181 ft | 249 kts | 259° |
| 2026-04-26 17:50 | 37.04570 | 10.40123 | 2898 ft | 249 kts | 237° |
| 2026-04-26 17:50 | 37.03762 | 10.38223 | 2612 ft | 248 kts | 257° |
| 2026-04-26 17:50 | 37.03773 | 10.36086 | 2332 ft | 247 kts | 285° |
| 2026-04-26 17:51 | 37.04432 | 10.34101 | 2063 ft | 257 kts | 295° |
| 2026-04-26 17:51 | 37.05093 | 10.32057 | 1956 ft | 245 kts | 278° |
| 2026-04-26 17:51 | 37.04950 | 10.30065 | 1928 ft | 218 kts | 245° |
| 2026-04-26 17:51 | 37.04110 | 10.28560 | 1949 ft | 209 kts | 219° |
| 2026-04-26 17:52 | 37.02892 | 10.27627 | 1967 ft | 205 kts | 199° |
| 2026-04-26 17:52 | 37.01524 | 10.27117 | 1970 ft | 205 kts | 188° |
| 2026-04-26 17:52 | 37.00129 | 10.26798 | 1975 ft | 203 kts | 190° |
| 2026-04-26 17:52 | 36.98767 | 10.26434 | 1976 ft | 203 kts | 190° |
| 2026-04-26 17:53 | 36.97372 | 10.26053 | 1974 ft | 202 kts | 190° |
| 2026-04-26 17:53 | 36.96015 | 10.25681 | 1882 ft | 202 kts | 190° |
| 2026-04-26 17:53 | 36.94676 | 10.25314 | 1699 ft | 186 kts | 191° |
| 2026-04-26 17:54 | 36.92431 | 10.24700 | 1217 ft | 141 kts | 189° |
| 2026-04-26 17:54 | 36.91495 | 10.24443 | 928 ft | 136 kts | 188° |
| 2026-04-26 17:54 | 36.90565 | 10.24196 | 778 ft | 137 kts | 188° |
| 2026-04-26 17:54 | 36.89637 | 10.23932 | 661 ft | 137 kts | 188° |
| 2026-04-26 17:55 | 36.88704 | 10.23691 | 482 ft | 138 kts | 188° |
| 2026-04-26 17:55 | 36.87763 | 10.23442 | 343 ft | 137 kts | 189° |
| 2026-04-26 17:55 | 36.86835 | 10.23173 | 125 ft | 137 kts | 188° |
| 2026-04-26 17:55 | 36.85931 | 10.22924 | 35 ft | 125 kts | 192° |
| 2026-04-26 17:56 | 36.85269 | 10.22756 | 39 ft | 71 kts | 192° |
| 2026-04-26 17:56 | 36.84689 | 10.22592 | 35 ft | 26 kts | 198° |
| 2026-04-26 17:57 | 36.84555 | 10.22505 | 34 ft | 1 kts | 219° |
| 2026-04-26 17:57 | 36.84536 | 10.22483 | 34 ft | 10 kts | 232° |
| 2026-04-26 17:57 | 36.84484 | 10.22378 | 35 ft | 4 kts | 250° |
| 2026-04-26 17:57 | 36.84480 | 10.22351 | 35 ft | 5 kts | 265° |
| 2026-04-26 17:58 | 36.84460 | 10.22020 | 36 ft | 16 kts | 246° |
| 2026-04-26 17:59 | 36.84515 | 10.21805 | 36 ft | 15 kts | 40° |
| 2026-04-26 17:59 | 36.84538 | 10.21830 | 36 ft | 0 kts | 43° |